Time;durP1;ratioP1;P1;durP2;ratioP2;P2;SDS_P1;SDS_P2;PMS_P1;PMS_P2;Temp;Humidity;BMP_temperature;BMP_pressure;BME280_temperature;BME280_humidity;BME280_pressure;Samples;Min_cycle;Max_cycle;Signal;HPM_P1;HPM_P2
2021/08/12 16:34:54;;;;;;;7.95;6.60;;;25.50;99.90;;;;;;5119517;27;20963;-77
2021/08/12 16:37:23;;;;;;;8.85;6.18;;;25.40;99.90;;;;;;5121857;27;20294;-77
2021/08/12 16:39:50;;;;;;;10.68;6.13;;;25.70;99.90;;;;;;5122971;27;20258;-76
2021/08/12 16:42:17;;;;;;;8.15;5.82;;;26.20;99.90;;;;;;5119433;28;20282;-77
2021/08/12 16:44:44;;;;;;;10.65;5.93;;;26.60;99.90;;;;;;5125642;27;20279;-78
2021/08/12 16:47:11;;;;;;;11.85;5.93;;;26.80;99.90;;;;;;5120852;27;20292;-78
2021/08/12 16:49:38;;;;;;;7.40;5.25;;;27.10;99.90;;;;;;5112427;28;20281;-76
2021/08/12 16:52:07;;;;;;;6.40;5.05;;;27.40;99.90;;;;;;5108427;27;20281;-77
2021/08/12 16:54:34;;;;;;;8.90;5.82;;;27.50;99.90;;;;;;5109932;28;20304;-78
2021/08/12 16:57:01;;;;;;;9.95;5.47;;;27.50;99.90;;;;;;5109113;28;20237;-79
2021/08/12 16:59:28;;;;;;;7.40;5.10;;;27.70;99.90;;;;;;5110670;28;20215;-77
2021/08/12 17:01:55;;;;;;;7.50;4.85;;;27.80;99.90;;;;;;5107581;28;20286;-77
2021/08/12 17:04:22;;;;;;;11.02;5.07;;;27.70;99.90;;;;;;5111580;28;20656;-77
2021/08/12 17:06:51;;;;;;;5.63;5.03;;;27.70;99.90;;;;;;5106585;28;20605;-76
2021/08/12 17:09:19;;;;;;;8.88;4.82;;;27.50;99.90;;;;;;5108640;28;20202;-77
2021/08/12 17:11:46;;;;;;;10.05;5.22;;;27.30;99.90;;;;;;5107395;28;20285;-77
2021/08/12 17:14:13;;;;;;;6.88;5.28;;;27.20;99.90;;;;;;5108989;28;20206;-76
2021/08/12 17:16:40;;;;;;;8.98;5.57;;;27.10;99.90;;;;;;5109576;28;20198;-77
2021/08/12 17:19:07;;;;;;;6.50;5.15;;;27.30;99.90;;;;;;5108931;28;20287;-77
2021/08/12 17:21:34;;;;;;;7.88;5.00;;;27.20;99.90;;;;;;5111386;28;20643;-76
2021/08/12 17:24:01;;;;;;;6.07;4.80;;;27.10;99.90;;;;;;5107989;28;20246;-78
2021/08/12 17:26:29;;;;;;;8.18;4.97;;;26.80;99.90;;;;;;5109068;28;20281;-76
2021/08/12 17:28:56;;;;;;;7.68;5.10;;;26.80;99.90;;;;;;5107004;28;20229;-76
2021/08/12 17:31:23;;;;;;;7.82;5.25;;;26.40;99.90;;;;;;5108178;28;20352;-77
2021/08/12 17:33:49;;;;;;;7.25;4.97;;;25.90;99.90;;;;;;5107976;27;20206;-76
2021/08/12 17:36:16;;;;;;;9.07;5.60;;;25.70;99.90;;;;;;5110032;28;20282;-76
2021/08/12 17:38:43;;;;;;;6.78;5.00;;;25.70;99.90;;;;;;5112620;28;20246;-77
2021/08/12 17:41:13;;;;;;;9.75;5.15;;;25.40;99.90;;;;;;5108034;28;20209;-78
2021/08/12 17:43:42;;;;;;;9.23;5.47;;;25.00;99.90;;;;;;5110486;28;20300;-76
2021/08/12 17:46:08;;;;;;;9.75;5.40;;;25.00;99.90;;;;;;5105956;28;20193;-77
2021/08/12 17:48:36;;;;;;;7.63;5.25;;;24.80;99.90;;;;;;5098302;28;20195;-78
2021/08/12 17:51:02;;;;;;;9.07;6.30;;;24.60;99.90;;;;;;5097982;28;20622;-78
2021/08/12 17:53:29;;;;;;;9.20;6.18;;;24.20;99.90;;;;;;5097634;28;20290;-79
2021/08/12 17:55:56;;;;;;;9.40;5.93;;;24.30;99.90;;;;;;5097339;28;20286;-76
2021/08/12 17:58:23;;;;;;;7.65;6.00;;;24.40;99.90;;;;;;5095398;28;20572;-77
2021/08/12 18:00:56;;;;;;;11.25;6.35;;;24.50;99.90;;;;;;5095101;28;20289;-76
2021/08/12 18:03:25;;;;;;;8.43;6.35;;;24.40;99.90;;;;;;5103743;28;20221;-76
2021/08/12 18:05:54;;;;;;;6.55;5.82;;;24.40;99.90;;;;;;5085564;28;20281;-77
2021/08/12 18:08:23;;;;;;;9.65;6.18;;;24.50;99.90;;;;;;5097334;28;20624;-76
2021/08/12 18:10:50;;;;;;;9.05;5.43;;;24.30;99.90;;;;;;5099822;28;20203;-78
2021/08/12 18:13:17;;;;;;;13.25;5.85;;;24.00;99.90;;;;;;5111838;28;20335;-76
2021/08/12 18:15:44;;;;;;;9.93;5.63;;;23.80;99.90;;;;;;5104771;28;20294;-75
2021/08/12 18:18:12;;;;;;;15.60;6.63;;;23.80;99.90;;;;;;5097122;28;20652;-76
2021/08/12 18:20:40;;;;;;;10.93;6.13;;;23.70;99.90;;;;;;5104390;28;20282;-76
2021/08/12 18:23:09;;;;;;;9.13;5.82;;;23.40;99.90;;;;;;5106919;28;20223;-77
2021/08/12 18:25:36;;;;;;;8.98;5.80;;;23.40;99.90;;;;;;5106554;28;20252;-77
2021/08/12 18:28:03;;;;;;;10.45;6.13;;;23.20;99.90;;;;;;5110431;27;20278;-76
2021/08/12 18:30:30;;;;;;;8.85;6.20;;;23.10;99.90;;;;;;5088132;28;20234;-77
2021/08/12 18:32:57;;;;;;;7.82;5.90;;;23.00;99.90;;;;;;5088974;28;20289;-77
2021/08/12 18:35:26;;;;;;;10.73;6.40;;;23.00;99.90;;;;;;5104214;28;20681;-76
2021/08/12 18:37:52;;;;;;;7.60;6.65;;;23.10;99.90;;;;;;5089420;28;20259;-79
2021/08/12 18:40:19;;;;;;;13.57;8.00;;;23.10;99.90;;;;;;5097452;27;20286;-80
2021/08/12 18:42:46;;;;;;;12.88;8.43;;;23.00;99.90;;;;;;5095644;28;20313;-78
2021/08/12 18:45:13;;;;;;;9.32;6.90;;;23.00;99.90;;;;;;5102586;28;20225;-79
2021/08/12 18:47:41;;;;;;;10.52;7.10;;;23.10;99.90;;;;;;5100365;28;20308;-78
2021/08/12 18:50:09;;;;;;;10.15;6.20;;;23.20;99.90;;;;;;5090922;28;20210;-77
2021/08/12 18:52:38;;;;;;;10.35;6.68;;;23.20;99.90;;;;;;5097250;28;20221;-77
2021/08/12 18:55:06;;;;;;;12.55;6.15;;;23.30;99.90;;;;;;5093785;28;20276;-77
2021/08/12 18:57:33;;;;;;;12.38;7.97;;;23.20;99.90;;;;;;5096108;28;20202;-79
2021/08/12 19:00:00;;;;;;;13.50;10.93;;;23.10;99.90;;;;;;5098566;28;20213;-77
2021/08/12 19:02:30;;;;;;;11.27;8.68;;;23.00;99.90;;;;;;5097967;28;20286;-77
2021/08/12 19:04:57;;;;;;;10.70;7.28;;;23.00;99.90;;;;;;5084171;28;20215;-78
2021/08/12 19:07:24;;;;;;;16.05;7.40;;;22.80;99.90;;;;;;5097978;28;20205;-79
2021/08/12 19:09:53;;;;;;;9.30;7.13;;;22.70;99.90;;;;;;5097685;28;20372;-77
2021/08/12 19:12:20;;;;;;;9.23;7.22;;;22.60;99.90;;;;;;5097142;28;20207;-76
2021/08/12 19:14:48;;;;;;;11.57;7.38;;;22.60;99.90;;;;;;5099510;28;20656;-76
2021/08/12 19:17:15;;;;;;;15.20;7.60;;;22.50;99.90;;;;;;5103278;28;20642;-78
2021/08/12 19:19:42;;;;;;;9.30;7.75;;;22.30;99.90;;;;;;5094875;28;20233;-78
2021/08/12 19:22:09;;;;;;;12.45;7.85;;;22.20;99.90;;;;;;5097519;28;20573;-78
2021/08/12 19:24:36;;;;;;;14.60;9.00;;;22.00;99.90;;;;;;5096384;28;20302;-77
2021/08/12 19:27:05;;;;;;;11.95;8.05;;;22.00;99.90;;;;;;5108013;28;20209;-79
2021/08/12 19:29:33;;;;;;;9.93;7.38;;;22.00;99.90;;;;;;5095918;28;20278;-77
2021/08/12 19:32:00;;;;;;;10.10;6.85;;;21.80;99.90;;;;;;5084537;28;20590;-78
2021/08/12 19:34:26;;;;;;;10.05;6.82;;;21.70;99.90;;;;;;5078750;28;20212;-76
2021/08/12 19:36:54;;;;;;;8.25;7.30;;;21.60;99.90;;;;;;5102698;28;20194;-77
2021/08/12 19:39:21;;;;;;;10.73;7.90;;;21.50;99.90;;;;;;5098185;28;20198;-78
2021/08/12 19:41:48;;;;;;;10.75;7.47;;;21.30;99.90;;;;;;5100836;28;20659;-77
2021/08/12 19:44:16;;;;;;;12.52;7.55;;;21.20;99.90;;;;;;5097568;28;20313;-77
2021/08/12 19:46:43;;;;;;;9.98;6.75;;;21.20;99.90;;;;;;5094510;28;20210;-78
2021/08/12 19:49:10;;;;;;;8.35;6.53;;;21.20;99.90;;;;;;5097398;28;20247;-77
2021/08/12 19:51:37;;;;;;;11.48;7.25;;;21.10;99.90;;;;;;5113143;28;20229;-76
2021/08/12 19:54:04;;;;;;;10.60;7.18;;;21.10;99.90;;;;;;5099746;28;20290;-78
2021/08/12 19:56:32;;;;;;;16.40;7.10;;;21.10;99.90;;;;;;5096084;28;20205;-76
2021/08/12 19:58:59;;;;;;;11.10;7.13;;;21.00;99.90;;;;;;5098328;28;20191;-80
2021/08/12 20:01:27;;;;;;;10.23;6.97;;;21.10;99.90;;;;;;5104594;28;20285;-77
2021/08/12 20:03:54;;;;;;;8.15;6.30;;;21.10;99.90;;;;;;5102311;28;20250;-79
2021/08/12 20:06:21;;;;;;;11.73;6.70;;;21.00;99.90;;;;;;5103771;28;20237;-78
2021/08/12 20:08:48;;;;;;;12.87;7.50;;;20.90;99.90;;;;;;5098588;28;20259;-77
2021/08/12 20:11:16;;;;;;;11.00;6.97;;;20.90;99.90;;;;;;5098124;28;20230;-78
2021/08/12 20:13:43;;;;;;;9.47;6.93;;;20.80;99.90;;;;;;5095296;28;20203;-79
2021/08/12 20:16:10;;;;;;;12.03;9.33;;;20.80;99.90;;;;;;5096218;28;20203;-76
2021/08/12 20:18:38;;;;;;;11.57;9.50;;;20.80;99.90;;;;;;5090239;28;20557;-76
2021/08/12 20:21:06;;;;;;;12.17;8.27;;;20.80;99.90;;;;;;5091881;28;20223;-81
2021/08/12 20:23:33;;;;;;;10.00;8.10;;;20.80;99.90;;;;;;5093054;28;20191;-76
2021/08/12 20:26:00;;;;;;;11.83;7.43;;;20.70;99.90;;;;;;5091467;28;20301;-76
2021/08/12 20:28:26;;;;;;;12.00;8.53;;;20.80;99.90;;;;;;5104206;28;20217;-78
2021/08/12 20:30:53;;;;;;;11.20;7.90;;;20.70;99.90;;;;;;5107149;28;20286;-79
2021/08/12 20:33:20;;;;;;;13.87;8.37;;;20.70;99.90;;;;;;5101242;28;20293;-76
2021/08/12 20:35:48;;;;;;;11.43;8.07;;;20.70;99.90;;;;;;5082770;28;20294;-76
2021/08/12 20:38:16;;;;;;;11.90;7.63;;;20.70;99.90;;;;;;5092277;28;20289;-77
2021/08/12 20:40:42;;;;;;;12.93;7.40;;;20.60;99.90;;;;;;5102487;28;20285;-78
2021/08/12 20:43:09;;;;;;;11.30;7.97;;;20.70;99.90;;;;;;5083325;28;20306;-76
2021/08/12 20:45:36;;;;;;;14.43;8.40;;;20.80;99.90;;;;;;5092686;28;20763;-79
2021/08/12 20:48:04;;;;;;;15.70;8.10;;;20.90;99.90;;;;;;5106220;28;20288;-78
2021/08/12 20:50:31;;;;;;;12.90;7.50;;;20.90;99.90;;;;;;5099555;28;20206;-78
2021/08/12 20:53:00;;;;;;;12.77;8.10;;;20.80;99.90;;;;;;5093540;28;20203;-77
2021/08/12 20:55:26;;;;;;;11.33;8.17;;;20.90;99.90;;;;;;5092143;28;20252;-77
2021/08/12 20:57:53;;;;;;;9.77;7.80;;;20.70;99.90;;;;;;5091493;28;20670;-78
2021/08/12 21:00:21;;;;;;;9.43;7.47;;;20.80;99.90;;;;;;5095397;28;20202;-75
2021/08/12 21:02:47;;;;;;;12.30;8.00;;;20.80;99.90;;;;;;5097390;28;20290;-77
2021/08/12 21:05:15;;;;;;;11.83;8.53;;;20.90;99.90;;;;;;5095510;28;20211;-79
2021/08/12 21:07:42;;;;;;;10.07;7.47;;;20.90;99.90;;;;;;5093813;28;20289;-79
2021/08/12 21:10:12;;;;;;;13.25;7.93;;;20.90;99.90;;;;;;5091135;28;20217;-79
2021/08/12 21:12:39;;;;;;;9.23;7.77;;;21.00;99.90;;;;;;5090200;28;20203;-79
2021/08/12 21:15:07;;;;;;;10.53;8.30;;;21.00;99.90;;;;;;5092159;28;20226;-77
2021/08/12 21:17:35;;;;;;;11.87;8.43;;;20.90;99.90;;;;;;5089318;28;20294;-77
2021/08/12 21:20:03;;;;;;;13.67;9.10;;;20.80;99.90;;;;;;5098065;28;20198;-78
2021/08/12 21:22:30;;;;;;;10.57;8.00;;;20.90;99.90;;;;;;5103708;28;20290;-78
2021/08/12 21:24:57;;;;;;;13.23;8.60;;;20.80;99.90;;;;;;5092610;28;20257;-76
2021/08/12 21:27:26;;;;;;;11.37;9.07;;;20.80;99.90;;;;;;5092998;28;20274;-79
2021/08/12 21:29:53;;;;;;;15.40;8.93;;;20.80;99.90;;;;;;5098267;28;20253;-80
2021/08/12 21:32:20;;;;;;;12.03;8.70;;;20.80;99.90;;;;;;5102876;28;20247;-79
2021/08/12 21:34:47;;;;;;;12.23;9.30;;;20.70;99.90;;;;;;5091735;28;20217;-77
2021/08/12 21:37:14;;;;;;;11.37;9.50;;;20.70;99.90;;;;;;5098376;28;20651;-78
2021/08/12 21:39:40;;;;;;;18.40;9.90;;;20.70;99.90;;;;;;5082374;28;20207;-79
2021/08/12 21:42:08;;;;;;;13.70;9.13;;;20.70;99.90;;;;;;5082880;28;20227;-77
2021/08/12 21:44:36;;;;;;;18.23;9.93;;;20.60;99.90;;;;;;5083466;28;20223;-77
2021/08/12 21:47:03;;;;;;;14.97;9.83;;;20.60;99.90;;;;;;5078080;28;20206;-78
2021/08/12 21:49:30;;;;;;;13.37;8.97;;;20.50;99.90;;;;;;5083749;28;20199;-77
2021/08/12 21:51:58;;;;;;;14.77;10.10;;;20.50;99.90;;;;;;5077208;28;20647;-79
2021/08/12 21:54:25;;;;;;;15.73;9.83;;;20.50;99.90;;;;;;5084875;28;20203;-78
2021/08/12 21:56:52;;;;;;;15.77;9.93;;;20.40;99.90;;;;;;5076669;28;20227;-77
2021/08/12 21:59:19;;;;;;;19.40;10.97;;;20.50;99.90;;;;;;5082352;28;20202;-75
2021/08/12 22:01:47;;;;;;;16.60;10.83;;;20.40;99.90;;;;;;5093240;28;20234;-76
2021/08/12 22:04:14;;;;;;;12.57;9.53;;;20.40;99.90;;;;;;5083976;28;20231;-79
2021/08/12 22:06:41;;;;;;;18.53;9.63;;;20.40;99.90;;;;;;5083413;28;20635;-75
2021/08/12 22:09:08;;;;;;;14.67;10.80;;;20.30;99.90;;;;;;5077681;28;20665;-76
2021/08/12 22:11:35;;;;;;;16.87;10.97;;;20.20;99.90;;;;;;5083518;28;20235;-78
2021/08/12 22:14:02;;;;;;;21.17;10.73;;;20.10;99.90;;;;;;5079600;28;20196;-77
2021/08/12 22:16:29;;;;;;;16.97;10.63;;;19.90;99.90;;;;;;5089130;28;20238;-80
2021/08/12 22:18:57;;;;;;;15.40;10.93;;;19.90;99.90;;;;;;5080270;28;20274;-76
2021/08/12 22:21:24;;;;;;;15.80;11.33;;;19.80;99.90;;;;;;5084975;28;20196;-76
2021/08/12 22:23:51;;;;;;;14.77;11.83;;;19.70;99.90;;;;;;5089088;28;20589;-77
2021/08/12 22:26:18;;;;;;;16.93;12.23;;;19.60;99.90;;;;;;5110567;28;20258;-77
2021/08/12 22:28:45;;;;;;;22.00;13.30;;;19.60;99.90;;;;;;5078608;28;20202;-77
2021/08/12 22:31:12;;;;;;;25.80;15.70;;;19.50;99.90;;;;;;5082688;28;20277;-78
2021/08/12 22:33:39;;;;;;;21.27;15.23;;;19.40;99.90;;;;;;5079134;28;20920;-76
2021/08/12 22:36:08;;;;;;;27.67;16.13;;;19.40;99.90;;;;;;5086055;28;20713;-76
2021/08/12 22:38:35;;;;;;;22.87;17.07;;;19.30;99.90;;;;;;5083103;28;20277;-80
2021/08/12 22:41:02;;;;;;;29.07;18.73;;;19.20;99.90;;;;;;5078781;28;20290;-76
2021/08/12 22:43:28;;;;;;;30.37;19.97;;;19.20;99.90;;;;;;5084228;28;20226;-79
2021/08/12 22:45:55;;;;;;;31.63;20.47;;;19.20;99.90;;;;;;5084053;28;20249;-76
2021/08/12 22:48:23;;;;;;;26.60;19.57;;;19.20;99.90;;;;;;5077874;28;20633;-79
2021/08/12 22:50:51;;;;;;;34.00;20.83;;;19.10;99.90;;;;;;5079782;28;20207;-76
2021/08/12 22:53:19;;;;;;;33.80;21.73;;;19.10;99.90;;;;;;5078300;28;20282;-75
2021/08/12 22:55:46;;;;;;;33.17;21.27;;;19.10;99.90;;;;;;5079594;28;20604;-76
2021/08/12 22:58:13;;;;;;;33.37;20.43;;;19.10;99.90;;;;;;5082347;28;20227;-76
2021/08/12 23:00:40;;;;;;;31.57;21.40;;;19.20;99.90;;;;;;5078635;28;20618;-76
2021/08/12 23:03:06;;;;;;;32.80;20.27;;;19.10;99.90;;;;;;5080347;28;20227;-77
2021/08/12 23:05:33;;;;;;;34.07;21.00;;;19.10;99.90;;;;;;5079563;28;20299;-78
2021/08/12 23:08:00;;;;;;;31.37;19.90;;;19.20;99.90;;;;;;5081366;28;20192;-78
2021/08/12 23:10:30;;;;;;;35.33;21.63;;;19.20;99.90;;;;;;5083781;28;20202;-79
2021/08/12 23:12:57;;;;;;;31.40;21.47;;;19.00;99.90;;;;;;5084216;28;20665;-79
2021/08/12 23:15:24;;;;;;;32.43;22.50;;;19.00;99.90;;;;;;5085232;28;20246;-80
2021/08/12 23:17:52;;;;;;;35.20;22.27;;;18.90;99.90;;;;;;5084898;28;20567;-76
2021/08/12 23:20:19;;;;;;;36.70;22.73;;;18.90;99.90;;;;;;5076585;28;20639;-77
2021/08/12 23:22:46;;;;;;;40.70;24.00;;;18.90;99.90;;;;;;5075562;28;20696;-78
2021/08/12 23:25:13;;;;;;;42.10;23.10;;;18.80;99.90;;;;;;5077715;28;20302;-77
2021/08/12 23:27:42;;;;;;;40.63;24.50;;;18.80;99.90;;;;;;5086226;28;20286;-80
2021/08/12 23:30:10;;;;;;;34.47;23.43;;;18.80;99.90;;;;;;5085004;28;20199;-80
2021/08/12 23:32:36;;;;;;;38.10;23.83;;;18.80;99.90;;;;;;5081153;28;20280;-80
2021/08/12 23:35:04;;;;;;;36.17;23.30;;;18.90;99.90;;;;;;5078550;28;20295;-79
2021/08/12 23:37:31;;;;;;;41.97;24.10;;;18.80;99.90;;;;;;5077684;28;20201;-78
2021/08/12 23:39:58;;;;;;;42.57;24.93;;;18.80;99.90;;;;;;5074621;28;20272;-76
2021/08/12 23:42:25;;;;;;;37.20;23.93;;;18.80;99.90;;;;;;5087860;28;20226;-78
2021/08/12 23:44:53;;;;;;;39.27;24.83;;;18.80;99.90;;;;;;5106161;28;20285;-79
2021/08/12 23:47:20;;;;;;;41.47;23.97;;;18.70;99.90;;;;;;5097149;28;20666;-75
2021/08/12 23:49:47;;;;;;;37.67;23.97;;;18.70;99.90;;;;;;5074364;28;20274;-78
2021/08/12 23:52:13;;;;;;;36.63;24.30;;;18.60;99.90;;;;;;5088668;28;20637;-77
2021/08/12 23:54:40;;;;;;;39.63;24.10;;;18.60;99.90;;;;;;5094530;28;20203;-77
2021/08/12 23:57:07;;;;;;;38.63;23.90;;;18.50;99.90;;;;;;5095299;28;20725;-76
2021/08/12 23:59:34;;;;;;;40.43;24.30;;;18.50;99.90;;;;;;5105351;28;20230;-77
